createdAt,value
2023-02-14T00:01:27.652Z,9.68
2023-02-14T00:04:00.577Z,10.02
2023-02-14T00:06:28.978Z,9.97
2023-02-14T00:08:56.845Z,9.78
2023-02-14T00:11:24.725Z,10.00
2023-02-14T00:14:06.466Z,9.92
2023-02-14T00:16:34.441Z,9.90
2023-02-14T00:19:06.739Z,9.76
2023-02-14T00:21:36.954Z,9.68
2023-02-14T00:24:05.655Z,9.63
2023-02-14T00:26:33.797Z,9.78
2023-02-14T00:29:02.005Z,9.95
2023-02-14T00:31:29.993Z,9.60
2023-02-14T00:33:57.994Z,9.76
2023-02-14T00:36:27.693Z,9.78
2023-02-14T00:38:55.708Z,9.65
2023-02-14T00:41:24.050Z,9.70
2023-02-14T00:43:53.941Z,9.48
2023-02-14T00:46:24.543Z,9.70
2023-02-14T00:48:52.752Z,9.56
2023-02-14T00:51:21.698Z,9.67
2023-02-14T00:53:53.029Z,9.72
2023-02-14T00:56:21.852Z,9.74
2023-02-14T00:58:50.220Z,9.37
2023-02-14T01:01:19.730Z,9.65
2023-02-14T01:03:48.051Z,9.64
2023-02-14T01:06:16.733Z,9.63
2023-02-14T01:08:44.625Z,9.74
2023-02-14T01:11:16.566Z,9.76
2023-02-14T01:13:45.673Z,9.75
2023-02-14T01:16:16.009Z,9.67
2023-02-14T01:18:44.523Z,9.82
2023-02-14T01:21:14.366Z,9.93
2023-02-14T01:23:42.807Z,9.66
2023-02-14T01:26:13.054Z,9.71
2023-02-14T01:28:42.161Z,9.76
2023-02-14T01:31:12.247Z,9.34
2023-02-14T01:33:41.119Z,9.57
2023-02-14T01:36:16.172Z,9.72
2023-02-14T01:38:44.118Z,9.11
2023-02-14T01:41:13.863Z,8.97
2023-02-14T01:43:57.108Z,9.28
2023-02-14T01:46:26.046Z,9.50
2023-02-14T01:48:56.912Z,9.60
2023-02-14T01:51:25.841Z,9.31
2023-02-14T01:53:55.659Z,9.38
2023-02-14T01:56:30.281Z,9.55
2023-02-14T01:59:02.759Z,9.76
2023-02-14T02:01:31.392Z,9.74
2023-02-14T02:04:06.770Z,9.51
2023-02-14T02:06:39.134Z,9.61
2023-02-14T02:09:13.154Z,9.35
2023-02-14T02:11:43.906Z,9.57
2023-02-14T02:14:16.258Z,9.54
2023-02-14T02:17:24.240Z,9.52
2023-02-14T02:20:27.235Z,9.69
2023-02-14T02:23:31.264Z,9.52
2023-02-14T02:26:17.571Z,9.70
2023-02-14T02:29:09.870Z,9.75
2023-02-14T02:31:59.048Z,9.66
2023-02-14T02:35:06.349Z,9.79
2023-02-14T02:37:44.273Z,9.87
2023-02-14T02:40:24.600Z,9.90
2023-02-14T02:43:05.190Z,9.57
2023-02-14T02:46:02.363Z,9.65
2023-02-14T02:48:40.113Z,9.63
2023-02-14T02:51:31.533Z,9.64
2023-02-14T02:54:08.326Z,9.86
2023-02-14T02:56:49.801Z,9.85
2023-02-14T02:59:22.234Z,9.96
2023-02-14T03:02:01.164Z,9.88
2023-02-14T03:04:47.076Z,9.85
2023-02-14T03:07:32.407Z,9.74
2023-02-14T03:10:05.680Z,9.72
2023-02-14T03:12:47.597Z,9.76
2023-02-14T03:15:23.098Z,9.77
2023-02-14T03:18:03.023Z,9.73
2023-02-14T03:20:42.544Z,9.65
2023-02-14T03:23:18.430Z,9.62
2023-02-14T03:25:56.969Z,9.77
2023-02-14T03:28:34.356Z,9.88
2023-02-14T03:31:09.512Z,9.81
2023-02-14T03:33:46.649Z,9.77
2023-02-14T03:36:17.642Z,9.93
2023-02-14T03:38:49.105Z,9.68
2023-02-14T03:41:24.523Z,9.77
2023-02-14T03:43:57.671Z,9.57
2023-02-14T03:46:29.814Z,9.48
2023-02-14T03:49:01.044Z,9.49
2023-02-14T03:51:34.232Z,9.65
2023-02-14T03:54:04.562Z,9.66
2023-02-14T03:56:39.791Z,9.55
2023-02-14T03:59:14.542Z,9.40
2023-02-14T04:01:48.097Z,9.59
2023-02-14T04:04:18.643Z,9.58
2023-02-14T04:06:46.674Z,9.52
2023-02-14T04:09:14.676Z,9.35
2023-02-14T04:11:44.099Z,9.47
2023-02-14T04:14:12.187Z,9.53
2023-02-14T04:16:53.914Z,9.46
2023-02-14T04:19:24.477Z,9.45
2023-02-14T04:21:53.630Z,9.51
2023-02-14T04:24:21.702Z,9.65
2023-02-14T04:27:10.537Z,9.54
2023-02-14T04:29:39.755Z,9.56
2023-02-14T04:32:09.413Z,9.48
2023-02-14T04:34:37.655Z,9.37
2023-02-14T04:37:06.069Z,9.28
2023-02-14T04:39:34.662Z,9.53
2023-02-14T04:42:04.621Z,9.54
2023-02-14T04:44:33.949Z,9.71
2023-02-14T04:47:02.462Z,9.67
2023-02-14T04:49:30.411Z,9.68
2023-02-14T04:51:58.607Z,9.43
2023-02-14T04:54:26.535Z,9.55
2023-02-14T04:56:54.376Z,9.60
2023-02-14T04:59:25.056Z,9.56
2023-02-14T05:01:53.323Z,9.50
2023-02-14T05:04:21.546Z,9.55
2023-02-14T05:06:49.422Z,9.53
2023-02-14T05:09:17.410Z,9.54
2023-02-14T05:11:45.298Z,9.47
2023-02-14T05:14:13.817Z,9.43
2023-02-14T05:16:43.141Z,9.43
2023-02-14T05:19:11.277Z,9.50
2023-02-14T05:21:39.103Z,9.54
2023-02-14T05:24:07.331Z,9.67
2023-02-14T05:26:35.191Z,9.52
2023-02-14T05:29:03.084Z,9.51
2023-02-14T05:31:31.062Z,9.39
2023-02-14T05:34:00.366Z,9.68
2023-02-14T05:36:28.234Z,9.57
2023-02-14T05:38:56.065Z,9.63
2023-02-14T05:41:23.941Z,9.56
2023-02-14T05:43:51.737Z,9.66
2023-02-14T05:46:19.576Z,9.66
2023-02-14T05:48:47.419Z,9.65
2023-02-14T05:51:16.616Z,9.72
2023-02-14T05:53:44.652Z,9.71
2023-02-14T05:56:12.685Z,9.67
2023-02-14T05:58:40.550Z,9.35
2023-02-14T06:01:08.384Z,9.50
2023-02-14T06:03:36.254Z,9.62
2023-02-14T06:06:04.279Z,9.57
2023-02-14T06:08:33.492Z,9.65
2023-02-14T06:11:01.640Z,9.53
2023-02-14T06:13:29.614Z,9.50
2023-02-14T06:15:57.547Z,9.51
2023-02-14T06:18:27.480Z,9.70
2023-02-14T06:20:55.595Z,9.82
2023-02-14T06:23:23.500Z,9.77
2023-02-14T06:25:52.730Z,9.89
2023-02-14T06:28:20.601Z,9.72
2023-02-14T06:30:48.683Z,9.79
2023-02-14T06:33:16.784Z,9.96
2023-02-14T06:35:44.644Z,9.97
2023-02-14T06:38:12.493Z,9.95
2023-02-14T06:40:40.341Z,9.66
2023-02-14T06:43:09.585Z,9.73
2023-02-14T06:45:37.570Z,9.73
2023-02-14T06:48:08.210Z,9.88
2023-02-14T06:50:36.401Z,10.00
2023-02-14T06:53:04.274Z,9.86
2023-02-14T06:55:32.112Z,9.96
2023-02-14T06:58:00.032Z,9.91
2023-02-14T07:00:29.328Z,9.91
2023-02-14T07:02:57.904Z,9.85
2023-02-14T07:05:25.847Z,9.79
2023-02-14T07:07:53.748Z,9.90
2023-02-14T07:10:21.767Z,9.93
2023-02-14T07:12:49.599Z,9.97
2023-02-14T07:15:17.554Z,10.07
2023-02-14T07:17:46.861Z,10.17
2023-02-14T07:20:15.802Z,10.04
2023-02-14T07:22:43.712Z,10.00
2023-02-14T07:25:12.233Z,9.74
2023-02-14T07:27:40.587Z,9.76
2023-02-14T07:30:10.600Z,9.94
2023-02-14T07:32:38.929Z,10.08
2023-02-14T07:35:09.044Z,10.19
2023-02-14T07:37:37.281Z,10.26
2023-02-14T07:40:14.023Z,10.14
2023-02-14T07:42:42.534Z,10.10
2023-02-14T07:45:21.011Z,10.21
2023-02-14T07:47:49.777Z,10.08
2023-02-14T07:50:19.440Z,10.09
2023-02-14T07:52:47.444Z,10.20
2023-02-14T07:55:16.341Z,10.25
2023-02-14T07:57:44.204Z,10.25
2023-02-14T08:00:14.443Z,10.32
2023-02-14T08:02:42.460Z,9.95
2023-02-14T08:05:10.624Z,10.11
2023-02-14T08:07:39.886Z,9.66
2023-02-14T08:10:09.742Z,10.02
2023-02-14T08:12:56.261Z,10.05
2023-02-14T08:15:41.782Z,9.65
2023-02-14T08:18:09.702Z,9.97
2023-02-14T08:20:37.611Z,10.22
2023-02-14T08:23:06.819Z,10.19
2023-02-14T08:25:34.709Z,10.20
2023-02-14T08:28:03.728Z,10.37
2023-02-14T08:30:32.115Z,10.12
2023-02-14T08:33:00.210Z,10.40
2023-02-14T08:35:28.174Z,10.37
2023-02-14T08:37:56.076Z,10.53
2023-02-14T08:40:25.324Z,10.41
2023-02-14T08:42:53.249Z,10.43
2023-02-14T08:45:21.799Z,10.40
2023-02-14T08:47:49.736Z,10.47
2023-02-14T08:50:18.631Z,10.30
2023-02-14T08:52:46.968Z,10.43
2023-02-14T08:55:14.999Z,10.52
2023-02-14T08:57:44.248Z,10.57
2023-02-14T09:00:13.010Z,9.59
2023-02-14T09:02:41.080Z,9.83
2023-02-14T09:05:10.657Z,9.65
2023-02-14T09:07:38.929Z,9.85
2023-02-14T09:10:08.589Z,9.93
2023-02-14T09:12:36.492Z,9.45
2023-02-14T09:15:06.474Z,9.53
2023-02-14T09:17:34.325Z,9.28
2023-02-14T09:20:02.159Z,9.36
2023-02-14T09:22:29.987Z,9.64
2023-02-14T09:24:57.887Z,10.25
2023-02-14T09:27:25.849Z,10.16
2023-02-14T09:29:53.860Z,9.94
2023-02-14T09:32:23.196Z,9.66
2023-02-14T09:34:51.265Z,10.11
2023-02-14T09:37:36.720Z,9.92
2023-02-14T09:40:05.858Z,10.41
2023-02-14T09:42:50.304Z,9.91
2023-02-14T09:45:20.677Z,9.98
2023-02-14T09:47:54.028Z,9.88
2023-02-14T09:50:24.913Z,9.84
2023-02-14T09:52:57.809Z,10.31
2023-02-14T09:55:30.238Z,10.63
2023-02-14T09:58:08.804Z,10.81
2023-02-14T10:00:42.288Z,10.84
2023-02-14T10:03:40.535Z,10.76
2023-02-14T10:06:17.647Z,10.80
2023-02-14T10:09:00.054Z,10.57
2023-02-14T10:11:29.450Z,10.68
2023-02-14T10:14:02.672Z,10.26
2023-02-14T10:16:35.477Z,10.89
2023-02-14T10:19:08.705Z,11.08
2023-02-14T10:21:39.315Z,11.08
2023-02-14T10:24:15.336Z,11.13
2023-02-14T10:26:44.518Z,11.05
2023-02-14T10:29:17.256Z,11.09
2023-02-14T10:31:55.665Z,11.25
2023-02-14T10:34:34.031Z,11.31
2023-02-14T10:37:19.917Z,10.85
2023-02-14T10:40:17.349Z,10.30
2023-02-14T10:42:56.140Z,9.93
2023-02-14T10:45:32.118Z,10.60
2023-02-14T10:48:06.885Z,10.01
2023-02-14T10:50:46.195Z,10.33
2023-02-14T10:53:24.682Z,10.41
2023-02-14T10:55:58.947Z,10.61
2023-02-14T10:58:30.123Z,10.75
2023-02-14T11:01:03.094Z,10.58
2023-02-14T11:03:31.304Z,10.91
2023-02-14T11:06:00.671Z,10.89
2023-02-14T11:08:32.738Z,10.97
2023-02-14T11:11:05.746Z,10.59
2023-02-14T11:13:36.992Z,10.23
2023-02-14T11:16:08.880Z,9.65
2023-02-14T11:18:39.432Z,9.95
2023-02-14T11:21:10.946Z,10.60
2023-02-14T11:23:42.176Z,10.26
2023-02-14T11:26:16.465Z,10.35
2023-02-14T11:28:55.644Z,10.56
2023-02-14T11:31:33.423Z,10.72
2023-02-14T11:34:05.046Z,10.89
2023-02-14T11:36:42.452Z,10.97
2023-02-14T11:39:28.752Z,10.21
2023-02-14T11:41:58.668Z,10.37
2023-02-14T11:44:28.959Z,10.46
2023-02-14T11:46:59.158Z,10.11
2023-02-14T11:49:30.549Z,10.09
2023-02-14T11:52:01.451Z,9.97
2023-02-14T11:54:33.208Z,10.31
2023-02-14T11:57:06.307Z,10.30
2023-02-14T11:59:39.101Z,10.60
2023-02-14T12:02:19.748Z,10.02
2023-02-14T12:04:50.037Z,10.06
2023-02-14T12:07:23.213Z,10.50
2023-02-14T12:10:17.103Z,10.95
2023-02-14T12:12:51.728Z,11.14
2023-02-14T12:15:36.769Z,11.22
2023-02-14T12:18:24.135Z,11.43
2023-02-14T12:20:58.225Z,11.43
2023-02-14T12:23:37.000Z,11.27
2023-02-14T12:26:14.601Z,11.25
2023-02-14T12:28:49.105Z,11.19
2023-02-14T12:31:17.574Z,11.42
2023-02-14T12:33:46.868Z,11.52
2023-02-14T12:36:28.278Z,11.31
2023-02-14T12:39:08.558Z,11.32
2023-02-14T12:41:47.043Z,11.41
2023-02-14T12:44:23.066Z,11.42
2023-02-14T12:47:13.202Z,11.60
2023-02-14T12:50:15.463Z,11.65
2023-02-14T12:53:12.097Z,11.46
2023-02-14T12:55:53.868Z,10.77
2023-02-14T12:58:41.400Z,11.02
2023-02-14T13:01:32.883Z,11.03
2023-02-14T13:04:28.620Z,10.82
2023-02-14T13:07:06.272Z,10.79
2023-02-14T13:09:41.679Z,10.26
2023-02-14T13:12:22.782Z,10.24
2023-02-14T13:15:01.200Z,10.68
2023-02-14T13:17:38.215Z,11.18
2023-02-14T13:20:22.022Z,11.20
2023-02-14T13:22:50.295Z,11.15
2023-02-14T13:25:30.985Z,11.27
2023-02-14T13:28:01.544Z,10.67
2023-02-14T13:30:32.840Z,10.92
2023-02-14T13:33:05.202Z,11.02
2023-02-14T13:35:33.680Z,11.13
2023-02-14T13:38:04.659Z,11.25
2023-02-14T13:40:33.861Z,10.76
2023-02-14T13:43:03.783Z,10.96
2023-02-14T13:46:05.161Z,11.00
2023-02-14T13:48:33.668Z,11.06
2023-02-14T13:51:03.888Z,10.36
2023-02-14T13:53:37.816Z,10.82
2023-02-14T13:56:27.061Z,10.54
2023-02-14T13:59:00.006Z,11.06
2023-02-14T14:01:34.514Z,10.76
2023-02-14T14:04:05.205Z,10.97
2023-02-14T14:07:08.865Z,11.21
2023-02-14T14:10:03.781Z,11.06
2023-02-14T14:12:44.453Z,10.44
2023-02-14T14:15:19.387Z,10.62
2023-02-14T14:18:09.651Z,10.41
2023-02-14T14:20:47.863Z,10.83
2023-02-14T14:23:31.996Z,10.83
2023-02-14T14:26:01.157Z,10.59
2023-02-14T14:28:33.649Z,9.95
2023-02-14T14:31:03.078Z,9.69
2023-02-14T14:33:33.404Z,9.84
2023-02-14T14:36:06.084Z,10.10
2023-02-14T14:38:46.188Z,10.14
2023-02-14T14:41:14.179Z,10.35
2023-02-14T14:43:42.554Z,10.20
2023-02-14T14:46:14.096Z,10.21
2023-02-14T14:48:45.895Z,10.43
2023-02-14T14:51:23.214Z,9.60
2023-02-14T14:53:54.147Z,10.20
2023-02-14T14:56:24.426Z,10.45
2023-02-14T14:58:52.553Z,10.09
2023-02-14T15:01:34.360Z,10.11
2023-02-14T15:04:13.453Z,10.22
2023-02-14T15:06:42.691Z,10.45
2023-02-14T15:09:16.059Z,10.45
2023-02-14T15:12:01.727Z,10.60
2023-02-14T15:14:31.481Z,10.67
2023-02-14T15:17:02.881Z,9.92
2023-02-14T15:19:37.042Z,9.96
2023-02-14T15:22:07.656Z,9.81
2023-02-14T15:24:38.912Z,9.64
2023-02-14T15:27:16.366Z,9.48
2023-02-14T15:29:55.102Z,10.08
2023-02-14T15:32:25.329Z,10.07
2023-02-14T15:34:55.324Z,10.07
2023-02-14T15:37:25.313Z,10.25
2023-02-14T15:39:56.723Z,10.14
2023-02-14T15:42:28.238Z,9.98
2023-02-14T15:45:15.488Z,9.87
2023-02-14T15:47:47.724Z,9.96
2023-02-14T15:50:17.889Z,9.94
2023-02-14T15:52:46.850Z,10.07
2023-02-14T15:55:19.635Z,10.06
2023-02-14T15:57:54.533Z,10.02
2023-02-14T16:00:24.410Z,10.19
2023-02-14T16:02:57.433Z,10.10
2023-02-14T16:05:27.234Z,10.06
2023-02-14T16:08:00.192Z,9.74
2023-02-14T16:10:29.790Z,10.19
2023-02-14T16:13:00.829Z,10.09
2023-02-14T16:15:30.419Z,9.89
2023-02-14T16:18:00.964Z,9.44
2023-02-14T16:20:38.543Z,9.84
2023-02-14T16:23:27.485Z,9.78
2023-02-14T16:25:57.326Z,9.68
2023-02-14T16:28:29.314Z,9.88
2023-02-14T16:30:59.967Z,9.84
2023-02-14T16:33:31.595Z,9.38
2023-02-14T16:36:06.235Z,9.78
2023-02-14T16:38:41.491Z,9.88
2023-02-14T16:41:16.143Z,9.78
2023-02-14T16:43:43.992Z,9.36
2023-02-14T16:46:13.343Z,8.98
2023-02-14T16:48:42.690Z,9.37
2023-02-14T16:51:13.912Z,9.67
2023-02-14T16:53:43.273Z,9.77
2023-02-14T16:56:18.062Z,9.48
2023-02-14T16:58:47.110Z,9.49
2023-02-14T17:01:15.057Z,8.90
2023-02-14T17:03:44.627Z,9.07
2023-02-14T17:06:16.064Z,9.05
2023-02-14T17:08:44.911Z,9.38
2023-02-14T17:11:13.131Z,9.37
2023-02-14T17:13:44.890Z,9.23
2023-02-14T17:16:15.624Z,9.55
2023-02-14T17:18:47.685Z,9.53
2023-02-14T17:21:17.001Z,9.46
2023-02-14T17:23:44.937Z,9.16
2023-02-14T17:26:12.852Z,9.59
2023-02-14T17:28:40.787Z,9.78
2023-02-14T17:31:09.061Z,9.73
2023-02-14T17:33:37.085Z,9.77
2023-02-14T17:36:10.091Z,9.95
2023-02-14T17:38:39.566Z,10.03
2023-02-14T17:41:15.258Z,9.71
2023-02-14T17:43:43.416Z,9.61
2023-02-14T17:46:11.653Z,9.70
2023-02-14T17:48:39.491Z,9.71
2023-02-14T17:51:10.557Z,9.70
2023-02-14T17:53:38.885Z,9.60
2023-02-14T17:56:07.566Z,9.57
2023-02-14T17:58:35.884Z,9.60
2023-02-14T18:01:05.290Z,9.26
2023-02-14T18:03:33.621Z,9.38
2023-02-14T18:06:02.593Z,9.01
2023-02-14T18:08:34.160Z,9.23
2023-02-14T18:11:05.706Z,9.32
2023-02-14T18:13:33.941Z,9.56
2023-02-14T18:16:03.233Z,9.62
2023-02-14T18:18:31.377Z,9.33
2023-02-14T18:21:01.204Z,9.50
2023-02-14T18:23:32.635Z,9.43
2023-02-14T18:26:04.221Z,9.41
2023-02-14T18:28:32.929Z,9.46
2023-02-14T18:31:04.578Z,9.32
2023-02-14T18:33:32.521Z,9.08
2023-02-14T18:36:02.597Z,9.43
2023-02-14T18:38:31.828Z,9.41
2023-02-14T18:41:03.340Z,9.31
2023-02-14T18:43:31.393Z,9.30
2023-02-14T18:46:03.643Z,9.32
2023-02-14T18:48:31.737Z,9.26
2023-02-14T18:51:05.858Z,8.62
2023-02-14T18:53:35.250Z,8.63
2023-02-14T18:56:05.544Z,9.07
2023-02-14T18:58:33.877Z,9.14
2023-02-14T19:01:08.535Z,9.37
2023-02-14T19:03:36.624Z,9.00
2023-02-14T19:06:04.804Z,9.25
2023-02-14T19:08:33.183Z,9.29
2023-02-14T19:11:03.078Z,9.32
2023-02-14T19:13:32.229Z,9.32
2023-02-14T19:16:00.684Z,8.98
2023-02-14T19:18:28.584Z,9.08
2023-02-14T19:20:56.526Z,8.99
2023-02-14T19:23:24.353Z,9.19
2023-02-14T19:25:52.386Z,9.01
2023-02-14T19:28:21.568Z,9.15
2023-02-14T19:30:49.504Z,9.09
2023-02-14T19:33:17.432Z,9.18
2023-02-14T19:35:45.256Z,9.13
2023-02-14T19:38:13.131Z,9.06
2023-02-14T19:40:44.998Z,9.08
2023-02-14T19:43:12.835Z,8.95
2023-02-14T19:45:42.072Z,8.75
2023-02-14T19:48:10.573Z,8.51
2023-02-14T19:50:39.847Z,8.89
2023-02-14T19:53:07.972Z,8.42
2023-02-14T19:55:35.784Z,8.67
2023-02-14T19:58:03.924Z,8.32
2023-02-14T20:00:31.791Z,8.45
2023-02-14T20:03:02.539Z,8.59
2023-02-14T20:05:30.379Z,8.59
2023-02-14T20:07:58.449Z,8.78
2023-02-14T20:10:26.424Z,8.83
2023-02-14T20:12:54.324Z,8.75
2023-02-14T20:15:22.197Z,8.76
2023-02-14T20:17:50.079Z,8.77
2023-02-14T20:20:19.594Z,8.90
2023-02-14T20:22:47.513Z,8.66
2023-02-14T20:25:15.364Z,8.93
2023-02-14T20:27:43.186Z,8.92
2023-02-14T20:30:11.942Z,8.51
2023-02-14T20:32:39.882Z,8.62
2023-02-14T20:35:08.550Z,8.83
2023-02-14T20:37:37.781Z,8.56
2023-02-14T20:40:07.066Z,8.55
2023-02-14T20:42:34.962Z,8.82
2023-02-14T20:45:02.830Z,8.66
2023-02-14T20:47:30.692Z,8.81
2023-02-14T20:49:58.577Z,8.71
2023-02-14T20:52:27.826Z,8.98
2023-02-14T20:54:57.082Z,8.74
2023-02-14T20:57:25.054Z,8.51
2023-02-14T20:59:52.865Z,8.28
2023-02-14T21:02:20.682Z,8.39
2023-02-14T21:04:48.555Z,8.40
2023-02-14T21:07:16.406Z,8.29
2023-02-14T21:09:44.507Z,8.16
2023-02-14T21:12:13.834Z,8.01
2023-02-14T21:14:41.761Z,8.16
2023-02-14T21:17:09.684Z,7.64
2023-02-14T21:19:37.563Z,8.26
2023-02-14T21:22:05.978Z,7.83
2023-02-14T21:24:33.804Z,8.02
2023-02-14T21:27:02.468Z,7.63
2023-02-14T21:29:31.725Z,7.98
2023-02-14T21:32:02.334Z,8.21
2023-02-14T21:34:31.346Z,8.06
2023-02-14T21:36:59.170Z,8.09
2023-02-14T21:39:27.853Z,7.66
2023-02-14T21:41:56.312Z,7.64
2023-02-14T21:44:38.294Z,7.66
2023-02-14T21:47:07.552Z,8.25
2023-02-14T21:49:53.069Z,8.26
2023-02-14T21:52:20.930Z,7.73
2023-02-14T21:54:49.027Z,8.21
2023-02-14T21:57:16.895Z,8.25
2023-02-14T21:59:44.782Z,8.09
2023-02-14T22:02:14.050Z,7.99
2023-02-14T22:04:43.201Z,7.90
2023-02-14T22:07:11.117Z,7.86
2023-02-14T22:09:39.052Z,7.95
2023-02-14T22:12:07.418Z,8.00
2023-02-14T22:14:35.289Z,7.90
2023-02-14T22:17:03.170Z,8.13
2023-02-14T22:19:32.431Z,7.70
2023-02-14T22:22:00.333Z,7.28
2023-02-14T22:24:28.400Z,7.44
2023-02-14T22:26:56.488Z,7.62
2023-02-14T22:29:24.434Z,7.77
2023-02-14T22:31:52.515Z,7.42
2023-02-14T22:34:20.626Z,7.58
2023-02-14T22:36:49.967Z,7.64
2023-02-14T22:39:18.114Z,7.63
2023-02-14T22:41:46.597Z,7.54
2023-02-14T22:44:14.952Z,7.53
2023-02-14T22:46:43.216Z,7.44
2023-02-14T22:49:11.117Z,7.38
2023-02-14T22:51:41.364Z,7.40
2023-02-14T22:54:13.436Z,7.15
2023-02-14T22:56:43.420Z,7.35
2023-02-14T22:59:16.742Z,7.17
2023-02-14T23:01:44.785Z,7.21
2023-02-14T23:04:13.785Z,7.38
2023-02-14T23:06:41.688Z,7.34
2023-02-14T23:09:12.533Z,7.48
2023-02-14T23:11:42.645Z,7.51
2023-02-14T23:14:30.549Z,7.59
2023-02-14T23:17:16.501Z,7.64
2023-02-14T23:20:02.731Z,7.59
2023-02-14T23:22:32.708Z,7.51
2023-02-14T23:25:04.423Z,7.63
2023-02-14T23:27:35.435Z,7.74
2023-02-14T23:30:04.003Z,7.53
2023-02-14T23:32:31.913Z,7.35
2023-02-14T23:35:00.445Z,7.51
2023-02-14T23:37:28.823Z,7.23
2023-02-14T23:39:56.822Z,7.34
2023-02-14T23:42:26.099Z,7.21
2023-02-14T23:44:54.004Z,7.17
2023-02-14T23:47:21.880Z,7.44
2023-02-14T23:49:49.822Z,7.38
2023-02-14T23:52:17.748Z,7.43
2023-02-14T23:54:45.600Z,7.40
2023-02-14T23:57:13.774Z,7.13
2023-02-14T23:59:43.106Z,7.23
